createdAt,value
2022-12-28T00:08:50.389Z,3.38
2022-12-28T00:14:09.489Z,3.38
2022-12-28T00:19:29.005Z,3.35
2022-12-28T00:24:47.938Z,3.31
2022-12-28T00:30:06.846Z,3.3
2022-12-28T00:40:45.761Z,3.27
2022-12-28T00:51:24.470Z,3.26
2022-12-28T00:56:44.126Z,3.2
2022-12-28T01:02:03.326Z,3.17
2022-12-28T01:07:22.809Z,3.16
2022-12-28T01:23:21.417Z,3.16
2022-12-28T01:33:59.863Z,3.11
2022-12-28T01:39:18.774Z,3.13
2022-12-28T01:49:56.561Z,3.07
2022-12-28T01:55:16.250Z,3.06
2022-12-28T02:05:54.424Z,3.1
2022-12-28T02:21:51.680Z,3.06
2022-12-28T02:32:29.715Z,3.06
2022-12-28T02:37:48.623Z,3.04
2022-12-28T02:53:47.223Z,3.07
2022-12-28T02:59:06.065Z,3.09
2022-12-28T03:09:44.761Z,3.11
2022-12-28T03:15:03.868Z,3.1
2022-12-28T03:25:42.710Z,3.16
2022-12-28T03:41:39.777Z,3.2
2022-12-28T03:52:18.267Z,3.24
2022-12-28T03:57:37.951Z,3.24
2022-12-28T04:08:15.875Z,3.33
2022-12-28T04:24:12.944Z,3.34
2022-12-28T04:34:51.498Z,3.38
2022-12-28T04:40:11.181Z,3.41
2022-12-28T04:50:49.931Z,3.45
2022-12-28T04:56:09.164Z,3.47
2022-12-28T05:06:48.290Z,3.48
2022-12-28T05:17:26.289Z,3.53
2022-12-28T05:22:45.726Z,3.54
2022-12-28T05:33:24.386Z,3.54
2022-12-28T05:49:21.685Z,3.58
2022-12-28T06:00:00.228Z,3.61
2022-12-28T06:05:19.294Z,3.63
2022-12-28T06:15:57.940Z,3.67
2022-12-28T06:26:36.898Z,3.7
2022-12-28T06:31:56.651Z,3.7
2022-12-28T06:42:35.994Z,3.71
2022-12-28T06:47:55.467Z,3.75
2022-12-28T06:58:34.274Z,3.74
2022-12-28T07:03:53.632Z,3.77
2022-12-28T07:14:32.049Z,3.77
2022-12-28T07:19:52.292Z,3.79
2022-12-28T07:25:11.823Z,3.81
2022-12-28T07:30:31.420Z,3.82
2022-12-28T07:41:08.573Z,3.86
2022-12-28T07:46:28.121Z,3.88
2022-12-28T07:57:05.863Z,3.89
2022-12-28T08:13:03.737Z,3.94
2022-12-28T08:23:41.855Z,3.99
2022-12-28T08:29:01.526Z,4.01
2022-12-28T08:34:21.267Z,4.03
2022-12-28T08:39:40.659Z,4.06
2022-12-28T08:55:39.457Z,4.16
2022-12-28T09:06:18.403Z,4.19
2022-12-28T09:11:37.622Z,4.23
2022-12-28T09:22:16.422Z,4.3
2022-12-28T09:27:35.305Z,4.32
2022-12-28T09:43:34.266Z,4.48
2022-12-28T09:48:53.357Z,4.52
2022-12-28T09:59:31.885Z,4.63
2022-12-28T10:04:51.091Z,4.69
2022-12-28T10:10:10.537Z,4.73
2022-12-28T10:15:29.069Z,4.77
2022-12-28T10:31:26.727Z,4.94
2022-12-28T10:42:05.152Z,5.11
2022-12-28T10:47:24.891Z,5.18
2022-12-28T10:58:28.378Z,5.31
2022-12-28T11:03:22.554Z,5.37
2022-12-28T11:14:01.529Z,5.48
2022-12-28T11:29:59.560Z,5.75
2022-12-28T11:40:37.685Z,5.88
2022-12-28T11:45:56.569Z,6.03
2022-12-28T11:56:34.940Z,6.17
2022-12-28T12:08:28.998Z,6.33
2022-12-28T12:12:33.976Z,6.4
2022-12-28T12:23:12.087Z,6.47
2022-12-28T12:28:31.246Z,6.51
2022-12-28T12:39:07.712Z,6.58
2022-12-28T12:55:06.099Z,6.71
2022-12-28T13:05:44.417Z,6.77
2022-12-28T13:11:03.272Z,6.76
2022-12-28T13:21:41.369Z,6.78
2022-12-28T13:37:38.128Z,6.78
2022-12-28T13:48:16.885Z,6.87
2022-12-28T13:53:36.085Z,6.91
2022-12-28T13:58:54.900Z,6.89
2022-12-28T14:04:50.985Z,6.89
2022-12-28T14:09:33.966Z,6.89
2022-12-28T14:20:13.326Z,6.88
2022-12-28T14:32:06.812Z,6.87
2022-12-28T14:36:23.473Z,6.85
2022-12-28T14:40:56.158Z,6.88
2022-12-28T14:48:43.626Z,6.84
2022-12-28T14:54:03.135Z,6.81
2022-12-28T15:04:41.866Z,6.8
2022-12-28T15:15:20.180Z,6.73
2022-12-28T15:20:38.892Z,6.73
2022-12-28T15:31:17.615Z,6.64
2022-12-28T15:36:36.567Z,6.61
2022-12-28T15:47:16.394Z,6.58
2022-12-28T15:57:53.650Z,6.53
2022-12-28T16:03:12.369Z,6.48
2022-12-28T16:13:51.308Z,6.43
2022-12-28T16:24:30.210Z,6.43
2022-12-28T16:35:09.001Z,6.34
2022-12-28T16:40:28.148Z,6.32
2022-12-28T16:51:06.529Z,6.29
2022-12-28T16:56:25.615Z,6.23
2022-12-28T17:07:13.267Z,6.16
2022-12-28T17:23:02.086Z,6.1
2022-12-28T17:33:40.782Z,6.03
2022-12-28T17:38:59.910Z,6.03
2022-12-28T17:49:38.418Z,5.99
2022-12-28T18:05:37.060Z,5.92
2022-12-28T18:21:34.647Z,5.89
2022-12-28T18:32:13.457Z,5.86
2022-12-28T18:37:33.132Z,5.85
2022-12-28T18:48:10.991Z,5.8
2022-12-28T19:04:08.967Z,5.75
2022-12-28T19:14:46.586Z,5.72
2022-12-28T19:20:05.411Z,5.72
2022-12-28T19:25:24.562Z,5.68
2022-12-28T19:30:43.958Z,5.7
2022-12-28T19:46:41.489Z,5.68
2022-12-28T20:02:39.254Z,5.63
2022-12-28T20:13:18.001Z,5.62
2022-12-28T20:18:36.995Z,5.62
2022-12-28T20:29:15.004Z,5.6
2022-12-28T20:39:52.646Z,5.59
2022-12-28T20:45:11.992Z,5.55
2022-12-28T20:50:31.054Z,5.55
2022-12-28T20:55:50.660Z,5.58
2022-12-28T21:01:09.825Z,5.55
2022-12-28T21:06:29.084Z,5.58
2022-12-28T21:11:49.095Z,5.55
2022-12-28T21:27:46.343Z,5.54
2022-12-28T21:38:25.430Z,5.52
2022-12-28T21:43:44.496Z,5.54
2022-12-28T21:54:23.043Z,5.54
2022-12-28T21:59:42.338Z,5.55
2022-12-28T22:10:21.175Z,5.55
2022-12-28T22:20:59.724Z,5.56
2022-12-28T22:26:19.418Z,5.58
2022-12-28T22:36:57.851Z,5.55
2022-12-28T22:42:16.693Z,5.56
2022-12-28T22:52:55.299Z,5.58
2022-12-28T23:03:33.347Z,5.6
2022-12-28T23:14:11.360Z,5.6
2022-12-28T23:19:29.849Z,5.59
2022-12-28T23:30:08.821Z,5.6
2022-12-28T23:46:06.313Z,5.63
2022-12-28T23:56:45.606Z,5.62
